createdAt,value
2019-02-17T00:01:18.713Z,14.50
2019-02-17T00:03:50.586Z,15.83
2019-02-17T00:06:23.363Z,15.75
2019-02-17T00:08:55.227Z,14.70
2019-02-17T00:11:27.095Z,15.50
2019-02-17T00:13:59.943Z,14.05
2019-02-17T00:16:31.832Z,14.10
2019-02-17T00:19:03.687Z,14.47
2019-02-17T00:21:35.544Z,14.30
2019-02-17T00:24:07.422Z,14.78
2019-02-17T00:26:39.256Z,13.62
2019-02-17T00:29:11.115Z,13.50
2019-02-17T00:31:42.960Z,13.48
2019-02-17T00:34:14.831Z,14.05
2019-02-17T00:36:46.681Z,12.85
2019-02-17T00:39:18.717Z,13.20
2019-02-17T00:41:50.658Z,13.43
2019-02-17T00:44:22.529Z,13.20
2019-02-17T00:46:54.367Z,13.10
2019-02-17T00:49:28.314Z,12.85
2019-02-17T00:52:00.220Z,13.38
2019-02-17T00:54:32.098Z,14.45
2019-02-17T00:57:03.929Z,14.55
2019-02-17T00:59:35.763Z,14.15
2019-02-17T01:02:07.622Z,14.53
2019-02-17T01:04:39.507Z,13.48
2019-02-17T01:07:11.348Z,13.80
2019-02-17T01:09:43.211Z,13.50
2019-02-17T01:12:15.063Z,14.53
2019-02-17T01:14:46.894Z,14.60
2019-02-17T01:17:18.761Z,14.40
2019-02-17T01:19:50.654Z,13.25
2019-02-17T01:22:22.517Z,13.28
2019-02-17T01:24:54.337Z,13.55
2019-02-17T01:27:26.180Z,13.65
2019-02-17T01:29:58.012Z,14.68
2019-02-17T01:32:29.856Z,14.83
2019-02-17T01:35:01.681Z,14.20
2019-02-17T01:37:33.522Z,13.15
2019-02-17T01:40:06.551Z,13.60
2019-02-17T01:42:38.387Z,14.00
2019-02-17T01:45:11.883Z,13.28
2019-02-17T01:47:44.691Z,13.55
2019-02-17T01:50:16.525Z,13.80
2019-02-17T01:52:48.390Z,14.47
2019-02-17T01:55:20.242Z,13.90
2019-02-17T01:57:52.107Z,13.45
2019-02-17T02:00:23.977Z,13.72
2019-02-17T02:02:55.836Z,13.85
2019-02-17T02:05:27.791Z,14.10
2019-02-17T02:07:59.858Z,13.58
2019-02-17T02:10:33.316Z,14.30
2019-02-17T02:13:05.217Z,13.28
2019-02-17T02:15:38.335Z,13.60
2019-02-17T02:18:10.212Z,13.60
2019-02-17T02:20:42.268Z,13.30
2019-02-17T02:23:15.644Z,14.15
2019-02-17T02:25:47.514Z,13.72
2019-02-17T02:28:20.840Z,12.93
2019-02-17T02:30:52.701Z,13.48
2019-02-17T02:33:24.599Z,13.48
2019-02-17T02:35:56.467Z,13.40
2019-02-17T02:38:29.385Z,13.05
2019-02-17T02:41:01.959Z,13.85
2019-02-17T02:43:33.780Z,13.40
2019-02-17T02:46:05.646Z,12.90
2019-02-17T02:48:37.756Z,14.38
2019-02-17T02:51:09.611Z,13.32
2019-02-17T02:53:41.468Z,13.55
2019-02-17T02:56:13.335Z,12.80
2019-02-17T02:58:45.191Z,12.58
2019-02-17T03:01:17.095Z,13.25
2019-02-17T03:03:49.055Z,13.75
2019-02-17T03:06:28.095Z,13.10
2019-02-17T03:08:59.948Z,12.07
2019-02-17T03:11:31.795Z,12.55
2019-02-17T03:14:03.669Z,13.65
2019-02-17T03:16:35.514Z,15.70
2019-02-17T03:19:10.441Z,14.73
2019-02-17T03:21:42.308Z,14.33
2019-02-17T03:24:14.153Z,15.05
2019-02-17T03:26:46.005Z,14.25
2019-02-17T03:29:17.846Z,13.43
2019-02-17T03:31:49.728Z,13.68
2019-02-17T03:34:23.352Z,13.05
2019-02-17T03:36:55.198Z,12.65
2019-02-17T03:39:30.084Z,12.60
2019-02-17T03:42:02.167Z,12.98
2019-02-17T03:44:33.997Z,13.50
2019-02-17T03:47:05.860Z,13.68
2019-02-17T03:49:37.701Z,14.28
2019-02-17T03:52:09.567Z,12.95
2019-02-17T03:54:41.398Z,13.62
2019-02-17T03:57:13.284Z,13.40
2019-02-17T03:59:45.122Z,12.80
2019-02-17T04:02:16.961Z,12.95
2019-02-17T04:04:48.834Z,12.15
2019-02-17T04:07:20.704Z,14.73
2019-02-17T04:09:52.793Z,12.88
2019-02-17T04:12:24.758Z,13.62
2019-02-17T04:14:56.601Z,14.00
2019-02-17T04:17:28.648Z,14.58
2019-02-17T04:20:00.515Z,12.28
2019-02-17T04:22:32.369Z,13.60
2019-02-17T04:25:04.196Z,13.48
2019-02-17T04:27:36.071Z,14.13
2019-02-17T04:30:08.865Z,14.45
2019-02-17T04:32:40.696Z,12.78
2019-02-17T04:35:13.593Z,13.68
2019-02-17T04:37:45.507Z,13.38
2019-02-17T04:40:18.460Z,12.82
2019-02-17T04:42:50.314Z,12.75
2019-02-17T04:45:22.188Z,14.33
2019-02-17T04:47:57.142Z,12.15
2019-02-17T04:50:28.972Z,14.40
2019-02-17T04:53:00.792Z,13.62
2019-02-17T04:55:32.639Z,13.88
2019-02-17T04:58:04.480Z,13.55
2019-02-17T05:00:40.106Z,13.55
2019-02-17T05:03:09.840Z,13.38
2019-02-17T05:05:41.701Z,13.70
2019-02-17T05:08:13.527Z,13.35
2019-02-17T05:10:45.385Z,13.40
2019-02-17T05:13:17.218Z,14.70
2019-02-17T05:15:49.071Z,13.40
2019-02-17T05:18:20.892Z,14.20
2019-02-17T05:20:52.786Z,13.00
2019-02-17T05:23:24.580Z,12.60
2019-02-17T05:25:56.456Z,14.00
2019-02-17T05:28:28.273Z,12.73
2019-02-17T05:31:00.140Z,13.35
2019-02-17T05:33:31.959Z,12.80
2019-02-17T05:36:03.818Z,13.32
2019-02-17T05:38:35.652Z,14.03
2019-02-17T05:41:07.514Z,13.00
2019-02-17T05:43:42.432Z,14.00
2019-02-17T05:46:16.167Z,14.20
2019-02-17T05:48:48.000Z,14.25
2019-02-17T05:51:19.852Z,14.83
2019-02-17T05:53:53.422Z,14.38
2019-02-17T05:56:25.230Z,13.53
2019-02-17T05:58:57.051Z,14.33
2019-02-17T06:01:28.921Z,15.98
2019-02-17T06:04:00.755Z,16.77
2019-02-17T06:06:32.610Z,16.67
2019-02-17T06:09:05.356Z,15.68
2019-02-17T06:11:38.742Z,15.08
2019-02-17T06:14:10.591Z,15.25
2019-02-17T06:16:42.434Z,15.40
2019-02-17T06:19:14.297Z,15.55
2019-02-17T06:21:46.107Z,15.10
2019-02-17T06:24:17.948Z,13.95
2019-02-17T06:26:51.619Z,14.55
2019-02-17T06:29:27.439Z,14.78
2019-02-17T06:31:59.270Z,15.35
2019-02-17T06:34:31.096Z,15.80
2019-02-17T06:37:02.912Z,16.57
2019-02-17T06:39:34.773Z,15.88
2019-02-17T06:42:06.612Z,15.32
2019-02-17T06:44:38.515Z,15.60
2019-02-17T06:47:16.634Z,15.83
2019-02-17T06:49:48.478Z,16.40
2019-02-17T06:52:20.300Z,15.43
2019-02-17T06:55:19.184Z,14.40
2019-02-17T06:57:51.001Z,15.55
2019-02-17T07:00:27.292Z,16.30
2019-02-17T07:02:59.110Z,16.37
2019-02-17T07:05:56.667Z,16.30
2019-02-17T07:08:28.263Z,16.52
2019-02-17T07:11:00.114Z,18.65
2019-02-17T07:13:32.034Z,22.67
2019-02-17T07:16:03.895Z,20.30
2019-02-17T07:18:35.734Z,17.95
2019-02-17T07:21:07.591Z,16.17
2019-02-17T07:23:39.439Z,17.23
2019-02-17T07:26:11.316Z,15.48
2019-02-17T07:28:43.150Z,15.78
2019-02-17T07:31:16.329Z,18.05
2019-02-17T07:33:48.133Z,17.32
2019-02-17T07:36:21.942Z,17.23
2019-02-17T07:38:53.518Z,15.13
2019-02-17T07:41:25.100Z,16.40
2019-02-17T07:43:56.987Z,16.45
2019-02-17T07:46:28.929Z,17.25
2019-02-17T07:49:01.105Z,16.67
2019-02-17T07:51:32.929Z,18.15
2019-02-17T07:54:04.799Z,17.80
2019-02-17T07:56:36.617Z,16.80
2019-02-17T07:59:08.190Z,17.43
2019-02-17T08:01:45.194Z,19.65
2019-02-17T08:04:13.580Z,17.30
2019-02-17T08:06:45.124Z,17.57
2019-02-17T08:09:16.962Z,16.52
2019-02-17T08:11:48.795Z,18.15
2019-02-17T08:14:20.684Z,17.95
2019-02-17T08:16:52.569Z,18.37
2019-02-17T08:19:24.408Z,18.17
2019-02-17T08:21:55.964Z,19.10
2019-02-17T08:24:27.535Z,22.07
2019-02-17T08:26:59.409Z,20.00
2019-02-17T08:29:31.273Z,26.80
2019-02-17T08:32:02.905Z,23.30
2019-02-17T08:34:34.476Z,21.90
2019-02-17T08:37:06.023Z,21.80
2019-02-17T08:39:37.726Z,22.10
2019-02-17T08:42:09.305Z,28.00
2019-02-17T08:44:40.935Z,30.07
2019-02-17T08:47:12.525Z,25.90
2019-02-17T08:49:45.093Z,30.10
2019-02-17T08:52:16.694Z,30.70
2019-02-17T08:54:48.277Z,29.27
2019-02-17T08:57:19.870Z,20.43
2019-02-17T08:59:51.458Z,19.40
2019-02-17T09:02:23.035Z,19.33
2019-02-17T09:04:54.613Z,21.20
2019-02-17T09:07:26.229Z,20.00
2019-02-17T09:09:57.817Z,21.07
2019-02-17T09:12:29.455Z,24.07
2019-02-17T09:15:01.026Z,23.70
2019-02-17T09:17:34.718Z,24.40
2019-02-17T09:20:08.027Z,18.93
2019-02-17T09:22:42.498Z,20.63
2019-02-17T09:25:14.426Z,18.93
2019-02-17T09:27:46.019Z,18.90
2019-02-17T09:30:18.255Z,18.30
2019-02-17T09:32:49.877Z,18.50
2019-02-17T09:35:21.438Z,19.97
2019-02-17T09:37:53.163Z,18.97
2019-02-17T09:40:24.758Z,17.77
2019-02-17T09:42:57.710Z,17.50
2019-02-17T09:45:29.225Z,17.30
2019-02-17T09:48:02.621Z,18.17
2019-02-17T09:50:34.248Z,18.03
2019-02-17T09:53:08.893Z,18.23
2019-02-17T09:55:40.533Z,18.57
2019-02-17T09:58:12.644Z,19.27
2019-02-17T10:00:44.272Z,17.70
2019-02-17T10:03:15.834Z,16.63
2019-02-17T10:05:47.470Z,18.10
2019-02-17T10:08:20.105Z,16.20
2019-02-17T10:10:51.733Z,17.30
2019-02-17T10:13:23.323Z,16.80
2019-02-17T10:15:54.933Z,16.00
2019-02-17T10:18:26.504Z,17.27
2019-02-17T10:20:59.171Z,16.60
2019-02-17T10:23:30.748Z,17.37
2019-02-17T10:26:02.352Z,16.93
2019-02-17T10:28:42.099Z,15.90
2019-02-17T10:31:07.363Z,16.00
2019-02-17T10:33:40.582Z,17.27
2019-02-17T10:36:14.273Z,17.20
2019-02-17T10:38:45.901Z,16.27
2019-02-17T10:41:17.483Z,15.37
2019-02-17T10:43:49.187Z,14.97
2019-02-17T10:46:20.923Z,14.57
2019-02-17T10:48:52.501Z,16.17
2019-02-17T10:51:26.453Z,16.50
2019-02-17T10:53:57.575Z,15.17
2019-02-17T10:56:29.166Z,13.40
2019-02-17T10:59:00.812Z,12.87
2019-02-17T11:01:32.411Z,12.60
2019-02-17T11:04:09.925Z,12.03
2019-02-17T11:06:41.549Z,13.27
2019-02-17T11:09:19.251Z,13.10
2019-02-17T11:11:51.452Z,12.97
2019-02-17T11:14:23.063Z,12.80
2019-02-17T11:16:55.716Z,14.63
2019-02-17T11:19:27.355Z,13.00
2019-02-17T11:21:58.935Z,13.27
2019-02-17T11:24:30.545Z,14.57
2019-02-17T11:27:02.101Z,12.87
2019-02-17T11:29:33.740Z,13.43
2019-02-17T11:32:05.333Z,14.00
2019-02-17T11:34:36.914Z,14.10
2019-02-17T11:37:08.494Z,13.30
2019-02-17T11:39:40.117Z,14.80
2019-02-17T11:42:11.691Z,14.03
2019-02-17T11:44:43.350Z,14.03
2019-02-17T11:47:14.945Z,14.43
2019-02-17T11:49:46.581Z,13.70
2019-02-17T11:52:18.150Z,14.10
2019-02-17T11:54:49.774Z,13.43
2019-02-17T11:57:21.356Z,14.30
2019-02-17T11:59:53.089Z,15.27
2019-02-17T12:02:25.481Z,13.70
2019-02-17T12:04:57.207Z,14.07
2019-02-17T12:07:28.827Z,14.80
2019-02-17T12:10:01.494Z,14.80
2019-02-17T12:12:33.155Z,13.70
2019-02-17T12:15:06.375Z,15.13
2019-02-17T12:17:37.974Z,13.67
2019-02-17T12:20:34.918Z,13.73
2019-02-17T12:23:10.912Z,13.83
2019-02-17T12:25:53.464Z,14.27
2019-02-17T12:28:33.502Z,15.40
2019-02-17T12:31:05.116Z,14.47
2019-02-17T12:33:36.760Z,14.90
2019-02-17T12:36:08.393Z,14.57
2019-02-17T12:38:41.601Z,14.70
2019-02-17T12:41:13.194Z,14.10
2019-02-17T12:43:44.768Z,13.53
2019-02-17T12:46:16.375Z,12.97
2019-02-17T12:48:48.085Z,13.50
2019-02-17T12:51:19.789Z,13.47
2019-02-17T12:53:51.477Z,12.83
2019-02-17T12:56:24.131Z,12.77
2019-02-17T12:58:55.734Z,12.13
2019-02-17T13:01:27.338Z,12.73
2019-02-17T13:03:58.968Z,12.47
2019-02-17T13:06:30.595Z,12.70
2019-02-17T13:09:02.199Z,13.27
2019-02-17T13:11:34.924Z,13.70
2019-02-17T13:14:06.674Z,14.00
2019-02-17T13:16:38.251Z,13.00
2019-02-17T13:19:09.877Z,12.40
2019-02-17T13:21:41.439Z,13.27
2019-02-17T13:24:13.039Z,12.53
2019-02-17T13:26:44.612Z,12.50
2019-02-17T13:29:16.237Z,12.30
2019-02-17T13:31:48.018Z,12.20
2019-02-17T13:34:19.669Z,12.50
2019-02-17T13:36:51.374Z,12.57
2019-02-17T13:39:23.011Z,12.00
2019-02-17T13:41:54.617Z,12.97
2019-02-17T13:44:26.239Z,12.00
2019-02-17T13:46:57.817Z,11.43
2019-02-17T13:49:29.490Z,11.50
2019-02-17T13:52:01.076Z,10.70
2019-02-17T13:54:32.688Z,10.77
2019-02-17T13:57:04.253Z,11.63
2019-02-17T13:59:35.869Z,10.60
2019-02-17T14:02:07.517Z,10.07
2019-02-17T14:04:39.114Z,11.20
2019-02-17T14:07:10.768Z,11.30
2019-02-17T14:09:42.424Z,11.40
2019-02-17T14:12:15.075Z,12.40
2019-02-17T14:14:47.008Z,9.67
2019-02-17T14:17:18.825Z,9.43
2019-02-17T14:19:50.443Z,10.60
2019-02-17T14:22:22.049Z,10.03
2019-02-17T14:24:53.672Z,10.90
2019-02-17T14:27:25.391Z,10.57
2019-02-17T14:29:57.011Z,9.83
2019-02-17T14:32:28.720Z,10.83
2019-02-17T14:35:00.443Z,9.93
2019-02-17T14:37:32.050Z,9.90
2019-02-17T14:40:03.729Z,10.90
2019-02-17T14:42:36.852Z,9.90
2019-02-17T14:45:08.986Z,10.60
2019-02-17T14:47:40.586Z,10.50
2019-02-17T14:50:12.518Z,9.57
2019-02-17T14:52:44.163Z,10.10
2019-02-17T14:55:17.052Z,10.53
2019-02-17T14:57:48.682Z,9.47
2019-02-17T15:00:20.317Z,8.87
2019-02-17T15:02:52.171Z,8.63
2019-02-17T15:05:23.755Z,9.07
2019-02-17T15:07:55.473Z,8.93
2019-02-17T15:10:30.448Z,9.13
2019-02-17T15:13:02.167Z,8.83
2019-02-17T15:15:33.811Z,10.27
2019-02-17T15:18:07.975Z,9.50
2019-02-17T15:20:41.211Z,8.90
2019-02-17T15:23:12.789Z,8.37
2019-02-17T15:25:49.693Z,9.10
2019-02-17T15:28:21.467Z,8.00
2019-02-17T15:30:53.566Z,8.13
2019-02-17T15:33:25.243Z,8.10
2019-02-17T15:35:58.646Z,8.23
2019-02-17T15:38:30.277Z,8.17
2019-02-17T15:41:08.269Z,7.77
2019-02-17T15:43:43.907Z,7.63
2019-02-17T15:46:18.237Z,7.80
2019-02-17T15:48:59.889Z,9.20
2019-02-17T15:51:31.470Z,7.83
2019-02-17T15:54:06.009Z,8.30
2019-02-17T15:56:41.724Z,7.47
2019-02-17T15:59:18.381Z,8.00
2019-02-17T16:01:51.294Z,7.70
2019-02-17T16:04:28.539Z,8.10
2019-02-17T16:06:56.338Z,6.73
2019-02-17T16:09:30.286Z,8.53
2019-02-17T16:12:01.868Z,7.63
2019-02-17T16:14:33.592Z,9.50
2019-02-17T16:17:09.666Z,8.00
2019-02-17T16:19:41.683Z,8.80
2019-02-17T16:22:15.580Z,9.57
2019-02-17T16:24:47.202Z,15.43
2019-02-17T16:27:18.833Z,8.50
2019-02-17T16:29:50.607Z,7.83
2019-02-17T16:32:22.165Z,8.10
2019-02-17T16:34:53.752Z,6.43
2019-02-17T16:37:25.716Z,6.67
2019-02-17T16:40:01.141Z,6.60
2019-02-17T16:42:38.079Z,8.13
2019-02-17T16:45:16.623Z,6.00
2019-02-17T16:47:48.307Z,8.40
2019-02-17T16:50:27.889Z,8.20
2019-02-17T16:52:59.481Z,9.10
2019-02-17T16:55:38.366Z,7.67
2019-02-17T16:58:10.069Z,7.43
2019-02-17T17:00:46.388Z,7.70
2019-02-17T17:03:18.016Z,8.03
2019-02-17T17:05:49.695Z,9.70
2019-02-17T17:08:21.361Z,10.47
2019-02-17T17:10:52.965Z,9.87
2019-02-17T17:13:28.094Z,10.03
2019-02-17T17:16:04.120Z,10.77
2019-02-17T17:18:37.196Z,10.80
2019-02-17T17:21:10.109Z,10.93
2019-02-17T17:23:41.713Z,9.60
2019-02-17T17:26:14.654Z,11.10
2019-02-17T17:28:47.792Z,11.77
2019-02-17T17:31:27.065Z,11.77
2019-02-17T17:34:01.058Z,11.13
2019-02-17T17:36:34.591Z,11.00
2019-02-17T17:39:07.487Z,10.97
2019-02-17T17:41:46.154Z,12.50
2019-02-17T17:44:17.725Z,13.00
2019-02-17T17:46:49.384Z,10.63
2019-02-17T17:49:21.002Z,12.43
2019-02-17T17:51:54.150Z,12.87
2019-02-17T17:54:30.831Z,13.17
2019-02-17T17:57:07.024Z,14.27
2019-02-17T17:59:38.712Z,13.57
2019-02-17T18:02:15.420Z,15.50
2019-02-17T18:04:50.027Z,16.30
2019-02-17T18:07:25.183Z,14.87
2019-02-17T18:10:03.993Z,15.00
2019-02-17T18:12:38.883Z,14.17
2019-02-17T18:15:13.825Z,16.00
2019-02-17T18:17:53.819Z,14.33
2019-02-17T18:20:23.126Z,14.30
2019-02-17T18:22:57.954Z,13.50
2019-02-17T18:25:29.566Z,13.17
2019-02-17T18:28:01.339Z,13.37
2019-02-17T18:30:33.040Z,13.10
2019-02-17T18:33:07.501Z,12.23
2019-02-17T18:35:39.173Z,12.80
2019-02-17T18:38:13.953Z,10.97
2019-02-17T18:40:47.848Z,11.30
2019-02-17T18:43:21.775Z,10.97
2019-02-17T18:45:53.425Z,12.40
2019-02-17T18:48:25.039Z,10.80
2019-02-17T18:50:59.439Z,10.27
2019-02-17T18:53:34.104Z,11.33
2019-02-17T18:56:05.801Z,11.50
2019-02-17T18:58:40.471Z,11.60
2019-02-17T19:01:12.296Z,10.73
2019-02-17T19:03:44.140Z,11.20
2019-02-17T19:06:18.619Z,10.57
2019-02-17T19:08:50.548Z,12.83
2019-02-17T19:11:23.832Z,11.40
2019-02-17T19:13:57.021Z,12.20
2019-02-17T19:16:33.190Z,15.17
2019-02-17T19:19:04.815Z,12.07
2019-02-17T19:21:36.533Z,11.20
2019-02-17T19:24:10.287Z,11.97
2019-02-17T19:26:41.836Z,18.30
2019-02-17T19:29:25.486Z,17.77
2019-02-17T19:31:57.073Z,13.57
2019-02-17T19:34:28.742Z,13.60
2019-02-17T19:37:02.147Z,14.10
2019-02-17T19:39:33.766Z,12.40
2019-02-17T19:42:06.091Z,12.53
2019-02-17T19:44:41.770Z,11.63
2019-02-17T19:47:13.340Z,12.20
2019-02-17T19:49:44.961Z,18.10
2019-02-17T19:52:16.601Z,18.47
2019-02-17T19:54:50.541Z,18.60
2019-02-17T19:57:22.275Z,16.03
2019-02-17T19:59:59.854Z,15.90
2019-02-17T20:02:50.616Z,12.50
2019-02-17T20:05:25.287Z,12.17
2019-02-17T20:07:57.965Z,10.90
2019-02-17T20:10:34.499Z,10.93
2019-02-17T20:13:08.415Z,12.17
2019-02-17T20:15:40.245Z,9.93
2019-02-17T20:18:14.280Z,11.00
2019-02-17T20:20:46.989Z,12.00
2019-02-17T20:23:20.354Z,10.83
2019-02-17T20:25:59.308Z,11.07
2019-02-17T20:28:40.840Z,13.00
2019-02-17T20:31:06.657Z,12.10
2019-02-17T20:33:42.329Z,11.30
2019-02-17T20:36:18.389Z,13.30
2019-02-17T20:38:50.006Z,12.30
2019-02-17T20:41:22.756Z,14.30
2019-02-17T20:43:54.537Z,23.77
2019-02-17T20:46:26.111Z,15.80
2019-02-17T20:49:05.104Z,15.33
2019-02-17T20:51:36.714Z,14.93
2019-02-17T20:54:12.499Z,15.67
2019-02-17T20:56:44.107Z,12.23
2019-02-17T20:59:16.804Z,11.93
2019-02-17T21:01:49.748Z,12.57
2019-02-17T21:04:24.505Z,10.67
2019-02-17T21:06:56.122Z,11.57
2019-02-17T21:09:28.860Z,11.40
2019-02-17T21:12:00.455Z,12.73
2019-02-17T21:14:32.099Z,14.03
2019-02-17T21:17:03.788Z,12.67
2019-02-17T21:19:35.362Z,12.30
2019-02-17T21:22:07.092Z,12.00
2019-02-17T21:24:38.674Z,11.23
2019-02-17T21:27:10.290Z,15.03
2019-02-17T21:29:41.994Z,15.67
2019-02-17T21:32:16.536Z,13.50
2019-02-17T21:34:47.144Z,15.38
2019-02-17T21:37:18.754Z,17.03
2019-02-17T21:39:53.512Z,13.33
2019-02-17T21:42:25.153Z,13.30
2019-02-17T21:44:59.245Z,12.83
2019-02-17T21:47:32.887Z,13.00
2019-02-17T21:50:07.149Z,13.33
2019-02-17T21:52:42.213Z,12.37
2019-02-17T21:55:15.515Z,14.07
2019-02-17T21:57:48.732Z,14.07
2019-02-17T22:00:22.553Z,13.43
2019-02-17T22:02:54.157Z,12.70
2019-02-17T22:05:27.449Z,12.73
2019-02-17T22:07:58.986Z,13.90
2019-02-17T22:10:32.995Z,13.80
2019-02-17T22:13:06.218Z,13.13
2019-02-17T22:15:44.227Z,13.07
2019-02-17T22:18:17.443Z,13.80
2019-02-17T22:20:51.789Z,14.57
2019-02-17T22:23:23.546Z,14.60
2019-02-17T22:25:58.074Z,14.37
2019-02-17T22:28:29.658Z,13.47
2019-02-17T22:31:02.631Z,14.13
2019-02-17T22:33:37.133Z,12.23
2019-02-17T22:36:09.094Z,13.10
2019-02-17T22:38:43.056Z,13.08
2019-02-17T22:41:14.618Z,12.30
2019-02-17T22:43:46.233Z,12.53
2019-02-17T22:46:17.795Z,11.97
2019-02-17T22:48:52.809Z,11.30
2019-02-17T22:51:26.114Z,12.73
2019-02-17T22:53:58.054Z,13.27
2019-02-17T22:56:29.935Z,12.18
2019-02-17T22:59:04.424Z,12.07
2019-02-17T23:01:40.308Z,11.85
2019-02-17T23:04:15.186Z,11.40
2019-02-17T23:06:53.744Z,13.58
2019-02-17T23:09:23.584Z,12.82
2019-02-17T23:12:03.545Z,11.60
2019-02-17T23:14:38.809Z,11.68
2019-02-17T23:17:15.620Z,12.50
2019-02-17T23:19:49.993Z,12.10
2019-02-17T23:22:24.806Z,11.40
2019-02-17T23:24:56.942Z,11.33
2019-02-17T23:27:28.612Z,11.37
2019-02-17T23:30:00.468Z,12.00
2019-02-17T23:32:33.654Z,12.30
2019-02-17T23:35:05.532Z,12.77
2019-02-17T23:37:37.119Z,11.33
2019-02-17T23:40:10.415Z,11.75
2019-02-17T23:42:43.382Z,11.12
2019-02-17T23:45:15.279Z,12.28
2019-02-17T23:47:47.123Z,11.83
2019-02-17T23:50:18.988Z,11.12
2019-02-17T23:52:54.406Z,11.83
2019-02-17T23:55:28.425Z,11.20
2019-02-17T23:58:04.168Z,10.35
